Terminal Aerodrome Forecast
Issued by NWS

Home | Current Version | Previous Version | Text Only | Print | Product List | Glossary On
Versions: 1 2 3 4 5 6 7 8 9 10 11 12 13 14 15 16 17 18 19 20 21 22 23 24 25 26 27 28
000
FTUS43 KDMX 272332
TAFOTM
TAF
KOTM 272332Z 2800/2824 30009KT P6SM SCT050
     FM280200 29004KT P6SM BKN190
     FM280500 08004KT P6SM VCSH BKN100
     FM280800 07005KT P6SM BKN090
     FM281300 08011G19KT P6SM -RA OVC025
     FM282000 06011G17KT P6SM OVC010=

USA.gov is the U.S. government's official web portal to all federal, state and local government web resources and services.